sensor_id;sensor_type;location;lat;lon;timestamp;temperature;humidity
39033;DHT22;24794;51.982;5.878;2023-04-01T00:00:12;10.50;99.90
39033;DHT22;24794;51.982;5.878;2023-04-01T00:01:14;10.50;99.90
39033;DHT22;24794;51.982;5.878;2023-04-01T00:02:15;10.50;99.90
39033;DHT22;24794;51.982;5.878;2023-04-01T00:03:15;10.50;99.90
39033;DHT22;24794;51.982;5.878;2023-04-01T00:04:16;10.40;99.90
39033;DHT22;24794;51.982;5.878;2023-04-01T00:05:17;10.50;99.90
39033;DHT22;24794;51.982;5.878;2023-04-01T00:06:18;10.40;99.90
39033;DHT22;24794;51.982;5.878;2023-04-01T00:07:19;10.40;99.90
39033;DHT22;24794;51.982;5.878;2023-04-01T00:08:19;10.40;99.90
39033;DHT22;24794;51.982;5.878;2023-04-01T00:09:20;10.40;99.90
39033;DHT22;24794;51.982;5.878;2023-04-01T00:10:21;10.40;99.90
39033;DHT22;24794;51.982;5.878;2023-04-01T00:11:21;10.40;99.90
39033;DHT22;24794;51.982;5.878;2023-04-01T00:12:22;10.40;99.90
39033;DHT22;24794;51.982;5.878;2023-04-01T00:13:24;10.40;99.90
39033;DHT22;24794;51.982;5.878;2023-04-01T00:14:26;10.40;99.90
39033;DHT22;24794;51.982;5.878;2023-04-01T00:15:26;10.40;99.90
39033;DHT22;24794;51.982;5.878;2023-04-01T00:16:27;10.40;99.90
39033;DHT22;24794;51.982;5.878;2023-04-01T00:17:28;10.40;99.90
39033;DHT22;24794;51.982;5.878;2023-04-01T00:18:28;10.40;99.90
39033;DHT22;24794;51.982;5.878;2023-04-01T00:19:29;10.40;99.90
39033;DHT22;24794;51.982;5.878;2023-04-01T00:20:29;10.40;99.90
39033;DHT22;24794;51.982;5.878;2023-04-01T00:21:30;10.40;99.90
39033;DHT22;24794;51.982;5.878;2023-04-01T00:22:31;10.40;99.90
39033;DHT22;24794;51.982;5.878;2023-04-01T00:23:31;10.40;99.90
39033;DHT22;24794;51.982;5.878;2023-04-01T00:24:32;10.40;99.90
39033;DHT22;24794;51.982;5.878;2023-04-01T00:25:32;10.40;99.90
39033;DHT22;24794;51.982;5.878;2023-04-01T00:26:33;10.40;99.90
39033;DHT22;24794;51.982;5.878;2023-04-01T00:27:33;10.40;99.90
39033;DHT22;24794;51.982;5.878;2023-04-01T00:28:34;10.40;99.90
39033;DHT22;24794;51.982;5.878;2023-04-01T00:29:36;10.40;99.90
39033;DHT22;24794;51.982;5.878;2023-04-01T00:30:37;10.40;99.90
39033;DHT22;24794;51.982;5.878;2023-04-01T00:31:37;10.40;99.90
39033;DHT22;24794;51.982;5.878;2023-04-01T00:32:38;10.40;99.90
39033;DHT22;24794;51.982;5.878;2023-04-01T00:33:39;10.40;99.90
39033;DHT22;24794;51.982;5.878;2023-04-01T00:34:41;10.40;99.90
39033;DHT22;24794;51.982;5.878;2023-04-01T00:35:42;10.40;99.90
39033;DHT22;24794;51.982;5.878;2023-04-01T00:36:42;10.40;99.90
39033;DHT22;24794;51.982;5.878;2023-04-01T00:37:43;10.40;99.90
39033;DHT22;24794;51.982;5.878;2023-04-01T00:38:44;10.40;99.90
39033;DHT22;24794;51.982;5.878;2023-04-01T00:39:45;10.40;99.90
39033;DHT22;24794;51.982;5.878;2023-04-01T00:40:46;10.40;99.90
39033;DHT22;24794;51.982;5.878;2023-04-01T00:41:47;10.40;99.90
39033;DHT22;24794;51.982;5.878;2023-04-01T00:42:48;10.40;99.90
39033;DHT22;24794;51.982;5.878;2023-04-01T00:43:50;10.40;99.90
39033;DHT22;24794;51.982;5.878;2023-04-01T00:44:53;10.40;99.90
39033;DHT22;24794;51.982;5.878;2023-04-01T00:45:53;10.40;99.90
39033;DHT22;24794;51.982;5.878;2023-04-01T00:46:55;10.40;99.90
39033;DHT22;24794;51.982;5.878;2023-04-01T00:47:56;10.40;99.90
39033;DHT22;24794;51.982;5.878;2023-04-01T00:48:59;10.40;99.90
39033;DHT22;24794;51.982;5.878;2023-04-01T00:50:01;10.40;99.90
39033;DHT22;24794;51.982;5.878;2023-04-01T00:51:09;10.40;99.90
39033;DHT22;24794;51.982;5.878;2023-04-01T00:52:14;10.40;99.90
39033;DHT22;24794;51.982;5.878;2023-04-01T00:53:17;10.40;99.90
39033;DHT22;24794;51.982;5.878;2023-04-01T00:54:21;10.40;99.90
39033;DHT22;24794;51.982;5.878;2023-04-01T00:55:23;10.40;99.90
39033;DHT22;24794;51.982;5.878;2023-04-01T00:56:31;10.40;99.90
39033;DHT22;24794;51.982;5.878;2023-04-01T00:57:35;10.40;99.90
39033;DHT22;24794;51.982;5.878;2023-04-01T00:58:41;10.40;99.90
39033;DHT22;24794;51.982;5.878;2023-04-01T00:59:44;10.50;99.90
39033;DHT22;24794;51.982;5.878;2023-04-01T01:00:47;10.40;99.90
39033;DHT22;24794;51.982;5.878;2023-04-01T01:01:49;10.50;99.90
39033;DHT22;24794;51.982;5.878;2023-04-01T01:02:51;10.40;99.90
39033;DHT22;24794;51.982;5.878;2023-04-01T01:03:52;10.50;99.90
39033;DHT22;24794;51.982;5.878;2023-04-01T01:04:52;10.40;99.90
39033;DHT22;24794;51.982;5.878;2023-04-01T01:07:29;10.50;99.90
39033;DHT22;24794;51.982;5.878;2023-04-01T01:08:38;10.50;99.90
39033;DHT22;24794;51.982;5.878;2023-04-01T01:10:20;10.50;99.90
39033;DHT22;24794;51.982;5.878;2023-04-01T01:11:43;10.50;99.90
39033;DHT22;24794;51.982;5.878;2023-04-01T01:13:48;10.50;99.90
39033;DHT22;24794;51.982;5.878;2023-04-01T01:16:15;10.50;99.90
39033;DHT22;24794;51.982;5.878;2023-04-01T01:17:44;10.50;99.90
39033;DHT22;24794;51.982;5.878;2023-04-01T01:19:08;10.50;99.90
39033;DHT22;24794;51.982;5.878;2023-04-01T01:22:33;10.50;99.90
39033;DHT22;24794;51.982;5.878;2023-04-01T01:24:54;10.50;99.90
39033;DHT22;24794;51.982;5.878;2023-04-01T01:27:26;10.40;99.90
39033;DHT22;24794;51.982;5.878;2023-04-01T01:28:43;10.40;99.90
39033;DHT22;24794;51.982;5.878;2023-04-01T01:34:30;10.50;99.90
39033;DHT22;24794;51.982;5.878;2023-04-01T01:35:46;10.50;99.90
39033;DHT22;24794;51.982;5.878;2023-04-01T01:36:55;10.50;99.90
39033;DHT22;24794;51.982;5.878;2023-04-01T01:38:11;10.50;99.90
39033;DHT22;24794;51.982;5.878;2023-04-01T01:39:13;10.40;99.90
39033;DHT22;24794;51.982;5.878;2023-04-01T01:40:15;10.40;99.90
39033;DHT22;24794;51.982;5.878;2023-04-01T01:41:17;10.40;99.90
39033;DHT22;24794;51.982;5.878;2023-04-01T01:42:19;10.40;99.90
39033;DHT22;24794;51.982;5.878;2023-04-01T01:43:26;10.40;99.90
39033;DHT22;24794;51.982;5.878;2023-04-01T01:44:30;10.40;99.90
39033;DHT22;24794;51.982;5.878;2023-04-01T01:45:33;10.40;99.90
39033;DHT22;24794;51.982;5.878;2023-04-01T01:46:36;10.50;99.90
39033;DHT22;24794;51.982;5.878;2023-04-01T01:47:38;10.40;99.90
39033;DHT22;24794;51.982;5.878;2023-04-01T01:48:42;10.40;99.90
39033;DHT22;24794;51.982;5.878;2023-04-01T01:49:44;10.40;99.90
39033;DHT22;24794;51.982;5.878;2023-04-01T01:50:45;10.50;99.90
39033;DHT22;24794;51.982;5.878;2023-04-01T01:51:46;10.40;99.90
39033;DHT22;24794;51.982;5.878;2023-04-01T01:52:48;10.40;99.90
39033;DHT22;24794;51.982;5.878;2023-04-01T01:53:48;10.40;99.90
39033;DHT22;24794;51.982;5.878;2023-04-01T01:54:51;10.40;99.90
39033;DHT22;24794;51.982;5.878;2023-04-01T01:55:52;10.50;99.90
39033;DHT22;24794;51.982;5.878;2023-04-01T01:57:04;10.50;99.90
39033;DHT22;24794;51.982;5.878;2023-04-01T01:59:20;10.40;99.90
39033;DHT22;24794;51.982;5.878;2023-04-01T02:00:22;10.40;99.90
39033;DHT22;24794;51.982;5.878;2023-04-01T02:01:26;10.40;99.90
39033;DHT22;24794;51.982;5.878;2023-04-01T02:02:28;10.40;99.90
39033;DHT22;24794;51.982;5.878;2023-04-01T02:03:35;10.40;99.90
39033;DHT22;24794;51.982;5.878;2023-04-01T02:04:42;10.40;99.90
39033;DHT22;24794;51.982;5.878;2023-04-01T02:05:44;10.40;99.90
39033;DHT22;24794;51.982;5.878;2023-04-01T02:07:03;10.40;99.90
39033;DHT22;24794;51.982;5.878;2023-04-01T02:08:12;10.40;99.90
39033;DHT22;24794;51.982;5.878;2023-04-01T02:09:13;10.30;99.90
39033;DHT22;24794;51.982;5.878;2023-04-01T02:10:14;10.30;99.90
39033;DHT22;24794;51.982;5.878;2023-04-01T02:11:17;10.30;99.90
39033;DHT22;24794;51.982;5.878;2023-04-01T02:12:22;10.30;99.90
39033;DHT22;24794;51.982;5.878;2023-04-01T02:15:46;10.30;99.90
39033;DHT22;24794;51.982;5.878;2023-04-01T02:16:55;10.30;99.90
39033;DHT22;24794;51.982;5.878;2023-04-01T02:17:57;10.30;99.90
39033;DHT22;24794;51.982;5.878;2023-04-01T02:18:59;10.20;99.90
39033;DHT22;24794;51.982;5.878;2023-04-01T02:20:13;10.30;99.90
39033;DHT22;24794;51.982;5.878;2023-04-01T02:21:15;10.20;99.90
39033;DHT22;24794;51.982;5.878;2023-04-01T02:22:21;10.20;99.90
39033;DHT22;24794;51.982;5.878;2023-04-01T02:23:23;10.20;99.90
39033;DHT22;24794;51.982;5.878;2023-04-01T02:24:26;10.20;99.90
39033;DHT22;24794;51.982;5.878;2023-04-01T02:25:33;10.20;99.90
39033;DHT22;24794;51.982;5.878;2023-04-01T02:26:34;10.20;99.90
39033;DHT22;24794;51.982;5.878;2023-04-01T02:27:35;10.20;99.90
39033;DHT22;24794;51.982;5.878;2023-04-01T02:28:38;10.20;99.90
39033;DHT22;24794;51.982;5.878;2023-04-01T02:29:40;10.20;99.90
39033;DHT22;24794;51.982;5.878;2023-04-01T02:30:41;10.20;99.90
39033;DHT22;24794;51.982;5.878;2023-04-01T02:31:43;10.20;99.90
39033;DHT22;24794;51.982;5.878;2023-04-01T02:32:44;10.20;99.90
39033;DHT22;24794;51.982;5.878;2023-04-01T02:33:45;10.20;99.90
39033;DHT22;24794;51.982;5.878;2023-04-01T02:34:48;10.20;99.90
39033;DHT22;24794;51.982;5.878;2023-04-01T02:35:49;10.20;99.90
39033;DHT22;24794;51.982;5.878;2023-04-01T02:36:50;10.20;99.90
39033;DHT22;24794;51.982;5.878;2023-04-01T02:37:52;10.20;99.90
39033;DHT22;24794;51.982;5.878;2023-04-01T02:38:54;10.20;99.90
39033;DHT22;24794;51.982;5.878;2023-04-01T02:40:03;10.20;99.90
39033;DHT22;24794;51.982;5.878;2023-04-01T02:41:06;10.20;99.90
39033;DHT22;24794;51.982;5.878;2023-04-01T02:42:07;10.20;99.90
39033;DHT22;24794;51.982;5.878;2023-04-01T02:43:07;10.20;99.90
39033;DHT22;24794;51.982;5.878;2023-04-01T02:44:09;10.20;99.90
39033;DHT22;24794;51.982;5.878;2023-04-01T02:45:10;10.20;99.90
39033;DHT22;24794;51.982;5.878;2023-04-01T02:46:11;10.20;99.90
39033;DHT22;24794;51.982;5.878;2023-04-01T02:47:11;10.20;99.90
39033;DHT22;24794;51.982;5.878;2023-04-01T02:48:12;10.10;99.90
39033;DHT22;24794;51.982;5.878;2023-04-01T02:49:14;10.10;99.90
39033;DHT22;24794;51.982;5.878;2023-04-01T02:50:14;10.20;99.90
39033;DHT22;24794;51.982;5.878;2023-04-01T02:51:15;10.10;99.90
39033;DHT22;24794;51.982;5.878;2023-04-01T02:52:16;10.20;99.90
39033;DHT22;24794;51.982;5.878;2023-04-01T02:53:17;10.10;99.90
39033;DHT22;24794;51.982;5.878;2023-04-01T02:54:18;10.20;99.90
39033;DHT22;24794;51.982;5.878;2023-04-01T02:55:19;10.10;99.90
39033;DHT22;24794;51.982;5.878;2023-04-01T02:56:19;10.10;99.90
39033;DHT22;24794;51.982;5.878;2023-04-01T02:57:20;10.10;99.90
39033;DHT22;24794;51.982;5.878;2023-04-01T02:58:21;10.10;99.90
39033;DHT22;24794;51.982;5.878;2023-04-01T02:59:21;10.10;99.90
39033;DHT22;24794;51.982;5.878;2023-04-01T03:00:22;10.10;99.90
39033;DHT22;24794;51.982;5.878;2023-04-01T03:01:23;10.10;99.90
39033;DHT22;24794;51.982;5.878;2023-04-01T03:02:23;10.10;99.90
39033;DHT22;24794;51.982;5.878;2023-04-01T03:03:24;10.10;99.90
39033;DHT22;24794;51.982;5.878;2023-04-01T03:04:24;10.10;99.90
39033;DHT22;24794;51.982;5.878;2023-04-01T03:05:25;10.10;99.90
39033;DHT22;24794;51.982;5.878;2023-04-01T03:06:26;10.10;99.90
39033;DHT22;24794;51.982;5.878;2023-04-01T03:07:26;10.10;99.90
39033;DHT22;24794;51.982;5.878;2023-04-01T03:08:27;10.10;99.90
39033;DHT22;24794;51.982;5.878;2023-04-01T03:09:27;10.10;99.90
39033;DHT22;24794;51.982;5.878;2023-04-01T03:10:28;10.10;99.90
39033;DHT22;24794;51.982;5.878;2023-04-01T03:11:29;10.10;99.90
39033;DHT22;24794;51.982;5.878;2023-04-01T03:12:29;10.10;99.90
39033;DHT22;24794;51.982;5.878;2023-04-01T03:13:31;10.20;99.90
39033;DHT22;24794;51.982;5.878;2023-04-01T03:14:31;10.10;99.90
39033;DHT22;24794;51.982;5.878;2023-04-01T03:15:32;10.10;99.90
39033;DHT22;24794;51.982;5.878;2023-04-01T03:16:32;10.10;99.90
39033;DHT22;24794;51.982;5.878;2023-04-01T03:17:33;10.10;99.90
39033;DHT22;24794;51.982;5.878;2023-04-01T03:18:33;10.10;99.90
39033;DHT22;24794;51.982;5.878;2023-04-01T03:19:34;10.10;99.90
39033;DHT22;24794;51.982;5.878;2023-04-01T03:20:35;10.10;99.90
39033;DHT22;24794;51.982;5.878;2023-04-01T03:21:35;10.10;99.90
39033;DHT22;24794;51.982;5.878;2023-04-01T03:22:36;10.10;99.90
39033;DHT22;24794;51.982;5.878;2023-04-01T03:23:37;10.10;99.90
39033;DHT22;24794;51.982;5.878;2023-04-01T03:24:38;10.10;99.90
39033;DHT22;24794;51.982;5.878;2023-04-01T03:25:38;10.10;99.90
39033;DHT22;24794;51.982;5.878;2023-04-01T03:26:39;10.10;99.90
39033;DHT22;24794;51.982;5.878;2023-04-01T03:27:39;10.10;99.90
39033;DHT22;24794;51.982;5.878;2023-04-01T03:28:40;10.10;99.90
39033;DHT22;24794;51.982;5.878;2023-04-01T03:29:41;10.10;99.90
39033;DHT22;24794;51.982;5.878;2023-04-01T03:30:41;10.10;99.90
39033;DHT22;24794;51.982;5.878;2023-04-01T03:31:42;10.10;99.90
39033;DHT22;24794;51.982;5.878;2023-04-01T03:32:43;10.10;99.90
39033;DHT22;24794;51.982;5.878;2023-04-01T03:33:43;10.10;99.90
39033;DHT22;24794;51.982;5.878;2023-04-01T03:34:44;10.10;99.90
39033;DHT22;24794;51.982;5.878;2023-04-01T03:35:45;10.10;99.90
39033;DHT22;24794;51.982;5.878;2023-04-01T03:36:45;10.10;99.90
39033;DHT22;24794;51.982;5.878;2023-04-01T03:37:46;10.10;99.90
39033;DHT22;24794;51.982;5.878;2023-04-01T03:38:46;10.10;99.90
39033;DHT22;24794;51.982;5.878;2023-04-01T03:39:47;10.10;99.90
39033;DHT22;24794;51.982;5.878;2023-04-01T03:40:48;10.00;99.90
39033;DHT22;24794;51.982;5.878;2023-04-01T03:41:48;10.10;99.90
39033;DHT22;24794;51.982;5.878;2023-04-01T03:42:49;10.10;99.90
39033;DHT22;24794;51.982;5.878;2023-04-01T03:43:50;10.10;99.90
39033;DHT22;24794;51.982;5.878;2023-04-01T03:44:51;10.00;99.90
39033;DHT22;24794;51.982;5.878;2023-04-01T03:45:52;10.10;99.90
39033;DHT22;24794;51.982;5.878;2023-04-01T03:46:53;10.10;99.90
39033;DHT22;24794;51.982;5.878;2023-04-01T03:47:54;10.00;99.90
39033;DHT22;24794;51.982;5.878;2023-04-01T03:48:54;10.00;99.90
39033;DHT22;24794;51.982;5.878;2023-04-01T03:49:55;10.00;99.90
39033;DHT22;24794;51.982;5.878;2023-04-01T03:50:55;10.00;99.90
39033;DHT22;24794;51.982;5.878;2023-04-01T03:51:56;10.00;99.90
39033;DHT22;24794;51.982;5.878;2023-04-01T03:52:56;10.00;99.90
39033;DHT22;24794;51.982;5.878;2023-04-01T03:53:57;10.00;99.90
39033;DHT22;24794;51.982;5.878;2023-04-01T03:54:57;10.00;99.90
39033;DHT22;24794;51.982;5.878;2023-04-01T03:55:58;10.00;99.90
39033;DHT22;24794;51.982;5.878;2023-04-01T03:56:58;10.00;99.90
39033;DHT22;24794;51.982;5.878;2023-04-01T03:57:59;10.00;99.90
39033;DHT22;24794;51.982;5.878;2023-04-01T03:59:04;10.00;99.90
39033;DHT22;24794;51.982;5.878;2023-04-01T04:00:05;10.00;99.90
39033;DHT22;24794;51.982;5.878;2023-04-01T04:01:18;10.00;99.90
39033;DHT22;24794;51.982;5.878;2023-04-01T04:02:20;10.00;99.90
39033;DHT22;24794;51.982;5.878;2023-04-01T04:03:21;10.00;99.90
39033;DHT22;24794;51.982;5.878;2023-04-01T04:04:22;10.00;99.90
39033;DHT22;24794;51.982;5.878;2023-04-01T04:05:23;10.00;99.90
39033;DHT22;24794;51.982;5.878;2023-04-01T04:06:24;10.00;99.90
39033;DHT22;24794;51.982;5.878;2023-04-01T04:07:25;10.00;99.90
39033;DHT22;24794;51.982;5.878;2023-04-01T04:08:26;10.00;99.90
39033;DHT22;24794;51.982;5.878;2023-04-01T04:09:26;10.00;99.90
39033;DHT22;24794;51.982;5.878;2023-04-01T04:10:27;10.00;99.90
39033;DHT22;24794;51.982;5.878;2023-04-01T04:11:30;10.00;99.90
39033;DHT22;24794;51.982;5.878;2023-04-01T04:12:32;10.00;99.90
39033;DHT22;24794;51.982;5.878;2023-04-01T04:13:32;10.00;99.90
39033;DHT22;24794;51.982;5.878;2023-04-01T04:14:33;10.00;99.90
39033;DHT22;24794;51.982;5.878;2023-04-01T04:15:33;10.00;99.90
39033;DHT22;24794;51.982;5.878;2023-04-01T04:16:35;9.90;99.90
39033;DHT22;24794;51.982;5.878;2023-04-01T04:17:37;9.90;99.90
39033;DHT22;24794;51.982;5.878;2023-04-01T04:18:37;9.90;99.90
39033;DHT22;24794;51.982;5.878;2023-04-01T04:19:38;9.90;99.90
39033;DHT22;24794;51.982;5.878;2023-04-01T04:20:44;9.90;99.90
39033;DHT22;24794;51.982;5.878;2023-04-01T04:21:47;9.90;99.90
39033;DHT22;24794;51.982;5.878;2023-04-01T04:22:47;9.90;99.90
39033;DHT22;24794;51.982;5.878;2023-04-01T04:23:48;9.90;99.90
39033;DHT22;24794;51.982;5.878;2023-04-01T04:24:49;9.90;99.90
39033;DHT22;24794;51.982;5.878;2023-04-01T04:26:19;9.90;99.90
39033;DHT22;24794;51.982;5.878;2023-04-01T04:27:19;9.90;99.90
39033;DHT22;24794;51.982;5.878;2023-04-01T04:28:20;9.90;99.90
39033;DHT22;24794;51.982;5.878;2023-04-01T04:29:20;9.90;99.90
39033;DHT22;24794;51.982;5.878;2023-04-01T04:30:23;9.90;99.90
39033;DHT22;24794;51.982;5.878;2023-04-01T04:31:24;9.90;99.90
39033;DHT22;24794;51.982;5.878;2023-04-01T04:32:25;9.90;99.90
39033;DHT22;24794;51.982;5.878;2023-04-01T04:33:26;9.90;99.90
39033;DHT22;24794;51.982;5.878;2023-04-01T04:34:27;9.90;99.90
39033;DHT22;24794;51.982;5.878;2023-04-01T04:35:27;9.90;99.90
39033;DHT22;24794;51.982;5.878;2023-04-01T04:36:28;9.90;99.90
39033;DHT22;24794;51.982;5.878;2023-04-01T04:37:28;9.90;99.90
39033;DHT22;24794;51.982;5.878;2023-04-01T04:38:29;9.90;99.90
39033;DHT22;24794;51.982;5.878;2023-04-01T04:39:30;9.90;99.90
39033;DHT22;24794;51.982;5.878;2023-04-01T04:40:30;9.90;99.90
39033;DHT22;24794;51.982;5.878;2023-04-01T04:41:31;9.90;99.90
39033;DHT22;24794;51.982;5.878;2023-04-01T04:42:31;9.90;99.90
39033;DHT22;24794;51.982;5.878;2023-04-01T04:43:32;9.90;99.90
39033;DHT22;24794;51.982;5.878;2023-04-01T04:44:32;9.90;99.90
39033;DHT22;24794;51.982;5.878;2023-04-01T04:45:33;9.90;99.90
39033;DHT22;24794;51.982;5.878;2023-04-01T04:46:33;9.90;99.90
39033;DHT22;24794;51.982;5.878;2023-04-01T04:47:34;9.90;99.90
39033;DHT22;24794;51.982;5.878;2023-04-01T04:48:35;9.90;99.90
39033;DHT22;24794;51.982;5.878;2023-04-01T04:49:36;9.90;99.90
39033;DHT22;24794;51.982;5.878;2023-04-01T04:50:36;9.80;99.90
39033;DHT22;24794;51.982;5.878;2023-04-01T04:51:37;9.90;99.90
39033;DHT22;24794;51.982;5.878;2023-04-01T04:52:38;9.90;99.90
39033;DHT22;24794;51.982;5.878;2023-04-01T04:53:38;9.90;99.90
39033;DHT22;24794;51.982;5.878;2023-04-01T04:54:39;9.90;99.90
39033;DHT22;24794;51.982;5.878;2023-04-01T04:55:43;9.80;99.90
39033;DHT22;24794;51.982;5.878;2023-04-01T04:56:44;9.90;99.90
39033;DHT22;24794;51.982;5.878;2023-04-01T04:57:45;9.90;99.90
39033;DHT22;24794;51.982;5.878;2023-04-01T04:58:46;9.90;99.90
39033;DHT22;24794;51.982;5.878;2023-04-01T04:59:46;9.90;99.90
39033;DHT22;24794;51.982;5.878;2023-04-01T05:00:47;9.90;99.90
39033;DHT22;24794;51.982;5.878;2023-04-01T05:01:47;9.80;99.90
39033;DHT22;24794;51.982;5.878;2023-04-01T05:02:48;9.90;99.90
39033;DHT22;24794;51.982;5.878;2023-04-01T05:03:48;9.90;99.90
39033;DHT22;24794;51.982;5.878;2023-04-01T05:04:50;9.90;99.90
39033;DHT22;24794;51.982;5.878;2023-04-01T05:05:52;9.90;99.90
39033;DHT22;24794;51.982;5.878;2023-04-01T05:06:53;9.90;99.90
39033;DHT22;24794;51.982;5.878;2023-04-01T05:07:53;9.90;99.90
39033;DHT22;24794;51.982;5.878;2023-04-01T05:08:54;9.90;99.90
39033;DHT22;24794;51.982;5.878;2023-04-01T05:09:54;9.90;99.90
39033;DHT22;24794;51.982;5.878;2023-04-01T05:10:55;9.90;99.90
39033;DHT22;24794;51.982;5.878;2023-04-01T05:11:55;9.90;99.90
39033;DHT22;24794;51.982;5.878;2023-04-01T05:12:56;9.90;99.90
39033;DHT22;24794;51.982;5.878;2023-04-01T05:13:57;9.90;99.90
39033;DHT22;24794;51.982;5.878;2023-04-01T05:14:57;9.90;99.90
39033;DHT22;24794;51.982;5.878;2023-04-01T05:15:58;9.90;99.90
39033;DHT22;24794;51.982;5.878;2023-04-01T05:16:58;9.90;99.90
39033;DHT22;24794;51.982;5.878;2023-04-01T05:17:59;9.90;99.90
39033;DHT22;24794;51.982;5.878;2023-04-01T05:19:00;10.00;99.90
39033;DHT22;24794;51.982;5.878;2023-04-01T05:20:01;10.00;99.90
39033;DHT22;24794;51.982;5.878;2023-04-01T05:21:01;9.90;99.90
39033;DHT22;24794;51.982;5.878;2023-04-01T05:22:02;10.00;99.90
39033;DHT22;24794;51.982;5.878;2023-04-01T05:23:03;10.00;99.90
39033;DHT22;24794;51.982;5.878;2023-04-01T05:24:07;10.00;99.90
39033;DHT22;24794;51.982;5.878;2023-04-01T05:25:08;9.90;99.90
39033;DHT22;24794;51.982;5.878;2023-04-01T05:26:12;10.00;99.90
39033;DHT22;24794;51.982;5.878;2023-04-01T05:27:13;10.00;99.90
39033;DHT22;24794;51.982;5.878;2023-04-01T05:28:13;10.00;99.90
39033;DHT22;24794;51.982;5.878;2023-04-01T05:29:14;10.00;99.90
39033;DHT22;24794;51.982;5.878;2023-04-01T05:30:15;10.00;99.90
39033;DHT22;24794;51.982;5.878;2023-04-01T05:31:15;10.00;99.90
39033;DHT22;24794;51.982;5.878;2023-04-01T05:32:16;10.00;99.90
39033;DHT22;24794;51.982;5.878;2023-04-01T05:33:16;10.00;99.90
39033;DHT22;24794;51.982;5.878;2023-04-01T05:34:17;10.00;99.90
39033;DHT22;24794;51.982;5.878;2023-04-01T05:35:17;10.10;99.90
39033;DHT22;24794;51.982;5.878;2023-04-01T05:36:18;10.10;99.90
39033;DHT22;24794;51.982;5.878;2023-04-01T05:37:19;10.10;99.90
39033;DHT22;24794;51.982;5.878;2023-04-01T05:38:20;10.10;99.90
39033;DHT22;24794;51.982;5.878;2023-04-01T05:39:20;10.10;99.90
39033;DHT22;24794;51.982;5.878;2023-04-01T05:40:21;10.10;99.90
39033;DHT22;24794;51.982;5.878;2023-04-01T05:41:22;10.10;99.90
39033;DHT22;24794;51.982;5.878;2023-04-01T05:42:22;10.10;99.90
39033;DHT22;24794;51.982;5.878;2023-04-01T05:43:23;10.10;99.90
39033;DHT22;24794;51.982;5.878;2023-04-01T05:44:23;10.10;99.90
39033;DHT22;24794;51.982;5.878;2023-04-01T05:45:24;10.10;99.90
39033;DHT22;24794;51.982;5.878;2023-04-01T05:46:25;10.10;99.90
39033;DHT22;24794;51.982;5.878;2023-04-01T05:47:25;10.20;99.90
39033;DHT22;24794;51.982;5.878;2023-04-01T05:48:26;10.10;99.90
39033;DHT22;24794;51.982;5.878;2023-04-01T05:49:26;10.20;99.90
39033;DHT22;24794;51.982;5.878;2023-04-01T05:50:27;10.20;99.90
39033;DHT22;24794;51.982;5.878;2023-04-01T05:51:27;10.10;99.90
39033;DHT22;24794;51.982;5.878;2023-04-01T05:52:28;10.10;99.90
39033;DHT22;24794;51.982;5.878;2023-04-01T05:53:28;10.10;99.90
39033;DHT22;24794;51.982;5.878;2023-04-01T05:54:29;10.10;99.90
39033;DHT22;24794;51.982;5.878;2023-04-01T05:55:30;10.10;99.90
39033;DHT22;24794;51.982;5.878;2023-04-01T05:56:30;10.20;99.90
39033;DHT22;24794;51.982;5.878;2023-04-01T05:57:31;10.10;99.90
39033;DHT22;24794;51.982;5.878;2023-04-01T05:58:32;10.10;99.90
39033;DHT22;24794;51.982;5.878;2023-04-01T05:59:32;10.20;99.90
39033;DHT22;24794;51.982;5.878;2023-04-01T06:00:35;10.20;99.90
39033;DHT22;24794;51.982;5.878;2023-04-01T06:01:35;10.10;99.90
39033;DHT22;24794;51.982;5.878;2023-04-01T06:02:36;10.20;99.90
39033;DHT22;24794;51.982;5.878;2023-04-01T06:03:37;10.20;99.90
39033;DHT22;24794;51.982;5.878;2023-04-01T06:04:39;10.20;99.90
39033;DHT22;24794;51.982;5.878;2023-04-01T06:05:42;10.20;99.90
39033;DHT22;24794;51.982;5.878;2023-04-01T06:06:43;10.20;99.90
39033;DHT22;24794;51.982;5.878;2023-04-01T06:07:45;10.20;99.90
39033;DHT22;24794;51.982;5.878;2023-04-01T06:08:45;10.20;99.90
39033;DHT22;24794;51.982;5.878;2023-04-01T06:09:46;10.30;99.90
39033;DHT22;24794;51.982;5.878;2023-04-01T06:13:12;10.30;99.90
39033;DHT22;24794;51.982;5.878;2023-04-01T06:15:38;10.30;99.90
39033;DHT22;24794;51.982;5.878;2023-04-01T06:20:16;10.30;99.90
39033;DHT22;24794;51.982;5.878;2023-04-01T06:26:33;10.30;99.90
39033;DHT22;24794;51.982;5.878;2023-04-01T06:30:24;10.40;99.90
39033;DHT22;24794;51.982;5.878;2023-04-01T06:33:18;10.40;99.90
39033;DHT22;24794;51.982;5.878;2023-04-01T06:38:46;10.40;99.90
39033;DHT22;24794;51.982;5.878;2023-04-01T06:42:19;10.30;99.90
39033;DHT22;24794;51.982;5.878;2023-04-01T06:43:49;10.30;99.90
39033;DHT22;24794;51.982;5.878;2023-04-01T06:46:39;10.30;99.90
39033;DHT22;24794;51.982;5.878;2023-04-01T06:52:50;10.40;99.90
39033;DHT22;24794;51.982;5.878;2023-04-01T06:54:16;10.40;99.90
39033;DHT22;24794;51.982;5.878;2023-04-01T06:55:40;10.40;99.90
39033;DHT22;24794;51.982;5.878;2023-04-01T06:56:44;10.40;99.90
39033;DHT22;24794;51.982;5.878;2023-04-01T06:57:49;10.50;99.90
39033;DHT22;24794;51.982;5.878;2023-04-01T06:59:55;10.50;99.90
39033;DHT22;24794;51.982;5.878;2023-04-01T07:01:01;10.50;99.90
39033;DHT22;24794;51.982;5.878;2023-04-01T07:02:38;10.50;99.90
39033;DHT22;24794;51.982;5.878;2023-04-01T07:04:53;10.50;99.90
39033;DHT22;24794;51.982;5.878;2023-04-01T07:06:01;10.50;99.90
39033;DHT22;24794;51.982;5.878;2023-04-01T07:07:17;10.60;99.90
39033;DHT22;24794;51.982;5.878;2023-04-01T07:08:24;10.60;99.90
39033;DHT22;24794;51.982;5.878;2023-04-01T07:09:31;10.60;99.90
39033;DHT22;24794;51.982;5.878;2023-04-01T07:10:47;10.60;99.90
39033;DHT22;24794;51.982;5.878;2023-04-01T07:11:50;10.60;99.90
39033;DHT22;24794;51.982;5.878;2023-04-01T07:12:56;10.60;99.90
39033;DHT22;24794;51.982;5.878;2023-04-01T07:14:06;10.70;99.90
39033;DHT22;24794;51.982;5.878;2023-04-01T07:15:23;10.70;99.90
39033;DHT22;24794;51.982;5.878;2023-04-01T07:16:39;10.60;99.90
39033;DHT22;24794;51.982;5.878;2023-04-01T07:17:41;10.60;99.90
39033;DHT22;24794;51.982;5.878;2023-04-01T07:18:50;10.60;99.90
39033;DHT22;24794;51.982;5.878;2023-04-01T07:20:16;10.60;99.90
39033;DHT22;24794;51.982;5.878;2023-04-01T07:21:30;10.70;99.90
39033;DHT22;24794;51.982;5.878;2023-04-01T07:23:42;10.60;99.90
39033;DHT22;24794;51.982;5.878;2023-04-01T07:24:45;10.70;99.90
39033;DHT22;24794;51.982;5.878;2023-04-01T07:25:51;10.60;99.90
39033;DHT22;24794;51.982;5.878;2023-04-01T07:26:56;10.70;99.90
39033;DHT22;24794;51.982;5.878;2023-04-01T07:28:01;10.70;99.90
39033;DHT22;24794;51.982;5.878;2023-04-01T07:29:09;10.70;99.90